< Typhoon 197921 1979 Season Typhoon 197923 >
Typhoon 197922 (WAYNE)
General InformationTrack Information on Google MapsDetailed Wind InformationList of All Images || Disaster Info.ResourceGoogle EarthGE AnimationAtom FeedGeoJSON
Detalied Best Track (Time Zone = UTC)
Year Month Day Hour Lat. Long. Pressure (hPa) Wind (kt) Class Image Chart
1979 11 7 00 11.3 142.7 1004 0 2 Image Chart
1979 11 7 06 12.3 140.8 1004 0 2 Image Chart
1979 11 7 12 13.3 139.0 1004 0 2 Image Chart
1979 11 7 18 14.0 137.0 1002 0 2 Image Chart
1979 11 8 00 14.6 135.4 1002 0 2 Image Chart
1979 11 8 06 15.0 133.8 1000 0 2 Image Chart
1979 11 8 12 15.3 132.2 998 0 2 Image Chart
1979 11 8 18 15.7 131.0 996 0 2 Image Chart
1979 11 9 00 15.8 129.9 992 35 3 Image Chart
1979 11 9 06 15.8 129.2 992 35 3 Image Chart
1979 11 9 12 16.0 129.7 990 45 3 Image Chart
1979 11 9 18 17.0 129.3 990 45 3 Image Chart
1979 11 10 00 17.6 129.1 990 45 3 Image Chart
1979 11 10 06 17.7 129.0 990 45 3 Image Chart
1979 11 10 12 17.9 128.8 990 50 4 Image Chart
1979 11 10 18 18.2 128.7 990 50 4 Image Chart
1979 11 11 00 18.7 128.7 992 40 3 Image Chart
1979 11 11 06 18.5 128.3 994 35 3 Image Chart
1979 11 11 12 18.7 128.2 1000 0 2 Image Chart
1979 11 11 18 18.5 127.8 1000 0 2 Image Chart
1979 11 12 00 18.3 127.4 1000 0 2 Image Chart
1979 11 12 06 18.1 126.8 1000 0 2 Image Chart
1979 11 12 12 17.8 126.4 1000 0 2 Image Chart
1979 11 12 18 17.7 125.9 1000 0 2 Image Chart
1979 11 13 00 17.4 125.3 1004 0 2 Image Chart
1979 11 13 06 16.8 124.7 1008 0 2 Image Chart
1979 11 13 12 16.5 123.6 1008 0 2 Image Chart
Japan Meteorological Agency Best Track Data | Correction Date : 1992-10-21
< Typhoon 197921 1979 Season Typhoon 197923 >

Help